sensor_id;sensor_type;location;lat;lon;timestamp;pressure;altitude;pressure_sealevel;temperature;humidity
71857;BME280;63344;46.980;28.882;2023-12-20T00:01:49;100791.03;;;2.20;86.13
71857;BME280;63344;46.980;28.882;2023-12-20T00:04:17;100796.22;;;2.29;86.97
71857;BME280;63344;46.980;28.882;2023-12-20T00:06:44;100795.34;;;2.33;87.28
71857;BME280;63344;46.980;28.882;2023-12-20T00:09:11;100796.25;;;2.25;85.90
71857;BME280;63344;46.980;28.882;2023-12-20T00:11:39;100796.28;;;2.14;86.00
71857;BME280;63344;46.980;28.882;2023-12-20T00:14:09;100788.38;;;2.15;87.78
71857;BME280;63344;46.980;28.882;2023-12-20T00:16:36;100791.91;;;2.14;87.46
71857;BME280;63344;46.980;28.882;2023-12-20T00:19:03;100778.81;;;2.07;86.84
71857;BME280;63344;46.980;28.882;2023-12-20T00:21:31;100790.16;;;2.01;86.81
71857;BME280;63344;46.980;28.882;2023-12-20T00:23:58;100764.00;;;1.83;86.46
71857;BME280;63344;46.980;28.882;2023-12-20T00:26:25;100780.56;;;1.83;86.68
71857;BME280;63344;46.980;28.882;2023-12-20T00:28:53;100764.88;;;1.65;87.12
71857;BME280;63344;46.980;28.882;2023-12-20T00:31:20;100768.38;;;1.67;86.90
71857;BME280;63344;46.980;28.882;2023-12-20T00:33:47;100769.25;;;1.63;87.28
71857;BME280;63344;46.980;28.882;2023-12-20T00:36:15;100757.03;;;1.60;88.34
71857;BME280;63344;46.980;28.882;2023-12-20T00:38:42;100768.38;;;1.61;87.94
71857;BME280;63344;46.980;28.882;2023-12-20T00:41:10;100760.50;;;1.57;87.50
71857;BME280;63344;46.980;28.882;2023-12-20T00:43:37;100762.25;;;1.57;87.71
71857;BME280;63344;46.980;28.882;2023-12-20T00:46:04;100756.16;;;1.56;87.91
71857;BME280;63344;46.980;28.882;2023-12-20T00:48:31;100744.81;;;1.53;87.81
71857;BME280;63344;46.980;28.882;2023-12-20T00:51:00;100736.97;;;1.48;87.75
71857;BME280;63344;46.980;28.882;2023-12-20T00:53:27;100735.22;;;1.55;88.39
71857;BME280;63344;46.980;28.882;2023-12-20T00:55:55;100745.69;;;1.63;89.36
71857;BME280;63344;46.980;28.882;2023-12-20T00:58:22;100744.81;;;1.61;88.88
71857;BME280;63344;46.980;28.882;2023-12-20T01:00:49;100739.59;;;1.56;89.48
71857;BME280;63344;46.980;28.882;2023-12-20T01:03:16;100743.94;;;1.52;89.63
71857;BME280;63344;46.980;28.882;2023-12-20T01:05:44;100740.44;;;1.50;89.40
71857;BME280;63344;46.980;28.882;2023-12-20T01:08:11;100736.94;;;1.51;89.68
71857;BME280;63344;46.980;28.882;2023-12-20T01:10:40;100714.28;;;1.50;90.38
71857;BME280;63344;46.980;28.882;2023-12-20T01:13:07;100726.50;;;1.61;90.41
71857;BME280;63344;46.980;28.882;2023-12-20T01:15:36;100722.13;;;1.61;90.18
71857;BME280;63344;46.980;28.882;2023-12-20T01:18:03;100715.13;;;1.48;89.54
71857;BME280;63344;46.980;28.882;2023-12-20T01:20:31;100723.00;;;1.43;89.51
71857;BME280;63344;46.980;28.882;2023-12-20T01:22:58;100715.16;;;1.34;89.14
71857;BME280;63344;46.980;28.882;2023-12-20T01:25:25;100716.00;;;1.27;89.38
71857;BME280;63344;46.980;28.882;2023-12-20T01:27:55;100712.53;;;1.25;89.82
71857;BME280;63344;46.980;28.882;2023-12-20T01:30:22;100702.06;;;1.31;90.68
71857;BME280;63344;46.980;28.882;2023-12-20T01:32:50;100702.94;;;1.37;90.55
71857;BME280;63344;46.980;28.882;2023-12-20T01:35:17;100701.19;;;1.41;90.78
71857;BME280;63344;46.980;28.882;2023-12-20T01:37:45;100702.94;;;1.42;91.01
71857;BME280;63344;46.980;28.882;2023-12-20T01:40:13;100698.59;;;1.44;90.84
71857;BME280;63344;46.980;28.882;2023-12-20T01:42:40;100692.47;;;1.47;91.07
71857;BME280;63344;46.980;28.882;2023-12-20T01:45:08;100695.94;;;1.63;91.40
71857;BME280;63344;46.980;28.882;2023-12-20T01:47:36;100685.47;;;1.76;91.76
71857;BME280;63344;46.980;28.882;2023-12-20T01:50:04;100690.69;;;1.81;91.49
71857;BME280;63344;46.980;28.882;2023-12-20T01:52:32;100689.81;;;1.90;91.92
71857;BME280;63344;46.980;28.882;2023-12-20T01:55:01;100679.31;;;1.85;91.61
71857;BME280;63344;46.980;28.882;2023-12-20T01:57:31;100679.34;;;1.76;91.00
71857;BME280;63344;46.980;28.882;2023-12-20T01:59:59;100674.13;;;1.57;90.95
71857;BME280;63344;46.980;28.882;2023-12-20T02:02:27;100661.97;;;1.38;90.49
71857;BME280;63344;46.980;28.882;2023-12-20T02:04:56;100671.53;;;1.30;90.39
71857;BME280;63344;46.980;28.882;2023-12-20T02:07:23;100635.78;;;1.03;90.47
71857;BME280;63344;46.980;28.882;2023-12-20T02:09:51;100674.16;;;1.14;90.62
71857;BME280;63344;46.980;28.882;2023-12-20T02:12:19;100668.91;;;1.11;90.83
71857;BME280;63344;46.980;28.882;2023-12-20T02:14:47;100658.47;;;1.14;92.00
71857;BME280;63344;46.980;28.882;2023-12-20T02:17:15;100642.78;;;1.02;92.19
71857;BME280;63344;46.980;28.882;2023-12-20T02:19:43;100650.63;;;1.16;92.46
71857;BME280;63344;46.980;28.882;2023-12-20T02:22:11;100653.22;;;1.21;92.40
71857;BME280;63344;46.980;28.882;2023-12-20T02:24:39;100637.53;;;1.14;92.22
71857;BME280;63344;46.980;28.882;2023-12-20T02:27:07;100651.47;;;0.96;91.57
71857;BME280;63344;46.980;28.882;2023-12-20T02:29:35;100643.63;;;0.84;91.42
71857;BME280;63344;46.980;28.882;2023-12-20T02:32:02;100634.91;;;0.81;91.48
71857;BME280;63344;46.980;28.882;2023-12-20T02:34:30;100634.91;;;0.74;91.49
71857;BME280;63344;46.980;28.882;2023-12-20T02:36:57;100599.13;;;0.52;91.27
71857;BME280;63344;46.980;28.882;2023-12-20T02:39:25;100626.16;;;0.60;91.59
71857;BME280;63344;46.980;28.882;2023-12-20T02:41:53;100621.75;;;0.50;91.72
71857;BME280;63344;46.980;28.882;2023-12-20T02:44:21;100614.81;;;0.44;91.45
71857;BME280;63344;46.980;28.882;2023-12-20T02:46:48;100619.16;;;0.47;91.49
71857;BME280;63344;46.980;28.882;2023-12-20T02:49:15;100616.56;;;0.47;91.45
71857;BME280;63344;46.980;28.882;2023-12-20T02:51:43;100602.56;;;0.35;91.03
71857;BME280;63344;46.980;28.882;2023-12-20T02:54:10;100593.00;;;0.34;91.33
71857;BME280;63344;46.980;28.882;2023-12-20T02:56:37;100609.56;;;0.47;91.99
71857;BME280;63344;46.980;28.882;2023-12-20T02:59:05;100593.00;;;0.44;92.48
71857;BME280;63344;46.980;28.882;2023-12-20T03:01:32;100599.16;;;0.55;92.75
71857;BME280;63344;46.980;28.882;2023-12-20T03:04:01;100595.69;;;0.67;93.44
71857;BME280;63344;46.980;28.882;2023-12-20T03:06:28;100598.31;;;0.85;93.29
71857;BME280;63344;46.980;28.882;2023-12-20T03:08:55;100585.25;;;0.87;93.32
71857;BME280;63344;46.980;28.882;2023-12-20T03:11:26;100593.97;;;1.04;93.56
71857;BME280;63344;46.980;28.882;2023-12-20T03:13:57;100590.47;;;1.08;93.33
71857;BME280;63344;46.980;28.882;2023-12-20T03:16:24;100595.69;;;1.21;93.33
71857;BME280;63344;46.980;28.882;2023-12-20T03:18:52;100578.25;;;1.24;93.48
71857;BME280;63344;46.980;28.882;2023-12-20T03:21:22;100582.56;;;1.47;92.81
71857;BME280;63344;46.980;28.882;2023-12-20T03:23:50;100583.44;;;1.47;92.51
71857;BME280;63344;46.980;28.882;2023-12-20T03:26:17;100581.69;;;1.45;92.25
71857;BME280;63344;46.980;28.882;2023-12-20T03:28:46;100584.31;;;1.42;92.01
71857;BME280;63344;46.980;28.882;2023-12-20T03:31:13;100563.44;;;1.26;91.72
71857;BME280;63344;46.980;28.882;2023-12-20T03:33:41;100577.34;;;1.25;91.49
71857;BME280;63344;46.980;28.882;2023-12-20T03:36:08;100583.47;;;1.19;91.20
71857;BME280;63344;46.980;28.882;2023-12-20T03:38:35;100569.56;;;1.08;90.85
71857;BME280;63344;46.980;28.882;2023-12-20T03:41:02;100576.50;;;1.03;91.16
71857;BME280;63344;46.980;28.882;2023-12-20T03:43:30;100569.56;;;0.96;91.17
71857;BME280;63344;46.980;28.882;2023-12-20T03:45:57;100546.03;;;0.79;91.47
71857;BME280;63344;46.980;28.882;2023-12-20T03:48:26;100557.34;;;0.89;91.30
71857;BME280;63344;46.980;28.882;2023-12-20T03:50:53;100563.44;;;0.88;91.23
71857;BME280;63344;46.980;28.882;2023-12-20T03:53:20;100562.56;;;0.86;91.60
71857;BME280;63344;46.980;28.882;2023-12-20T03:55:47;100562.56;;;0.95;92.01
71857;BME280;63344;46.980;28.882;2023-12-20T03:58:15;100559.09;;;0.99;92.21
71857;BME280;63344;46.980;28.882;2023-12-20T04:00:42;100557.34;;;0.96;92.56
71857;BME280;63344;46.980;28.882;2023-12-20T04:03:10;100551.25;;;0.91;92.33
71857;BME280;63344;46.980;28.882;2023-12-20T04:05:40;100540.78;;;0.87;92.26
71857;BME280;63344;46.980;28.882;2023-12-20T04:08:09;100533.81;;;0.73;92.02
71857;BME280;63344;46.980;28.882;2023-12-20T04:10:37;100530.34;;;0.81;92.63
71857;BME280;63344;46.980;28.882;2023-12-20T04:13:08;100505.94;;;0.63;92.08
71857;BME280;63344;46.980;28.882;2023-12-20T04:15:37;100538.19;;;0.77;92.49
71857;BME280;63344;46.980;28.882;2023-12-20T04:18:06;100517.28;;;0.62;92.47
71857;BME280;63344;46.980;28.882;2023-12-20T04:20:33;100532.94;;;0.90;93.21
71857;BME280;63344;46.980;28.882;2023-12-20T04:23:02;100526.81;;;1.03;93.31
71857;BME280;63344;46.980;28.882;2023-12-20T04:25:29;100531.19;;;1.09;92.76
71857;BME280;63344;46.980;28.882;2023-12-20T04:27:57;100526.81;;;1.11;92.63
71857;BME280;63344;46.980;28.882;2023-12-20T04:30:24;100524.22;;;1.12;92.41
71857;BME280;63344;46.980;28.882;2023-12-20T04:32:52;100531.16;;;1.13;92.33
71857;BME280;63344;46.980;28.882;2023-12-20T04:35:19;100512.00;;;1.14;92.61
71857;BME280;63344;46.980;28.882;2023-12-20T04:37:47;100531.13;;;1.38;92.83
71857;BME280;63344;46.980;28.882;2023-12-20T04:40:16;100528.47;;;1.52;93.00
71857;BME280;63344;46.980;28.882;2023-12-20T04:42:46;100507.53;;;1.52;92.59
71857;BME280;63344;46.980;28.882;2023-12-20T04:45:14;100524.94;;;1.61;91.53
71857;BME280;63344;46.980;28.882;2023-12-20T04:47:44;100533.69;;;1.46;90.88
71857;BME280;63344;46.980;28.882;2023-12-20T04:50:15;100521.53;;;1.37;91.08
71857;BME280;63344;46.980;28.882;2023-12-20T04:52:44;100540.72;;;1.42;91.54
71857;BME280;63344;46.980;28.882;2023-12-20T04:55:14;100520.63;;;1.41;90.96
71857;BME280;63344;46.980;28.882;2023-12-20T04:57:57;100518.88;;;1.49;91.39
71857;BME280;63344;46.980;28.882;2023-12-20T05:00:27;100528.47;;;1.47;91.08
71857;BME280;63344;46.980;28.882;2023-12-20T05:02:58;100525.91;;;1.38;90.78
71857;BME280;63344;46.980;28.882;2023-12-20T05:05:27;100517.19;;;1.36;90.43
71857;BME280;63344;46.980;28.882;2023-12-20T05:07:56;100520.69;;;1.32;90.69
71857;BME280;63344;46.980;28.882;2023-12-20T05:10:27;100518.06;;;1.27;90.29
71857;BME280;63344;46.980;28.882;2023-12-20T05:12:56;100499.78;;;1.23;90.37
71857;BME280;63344;46.980;28.882;2023-12-20T05:15:24;100494.53;;;1.19;90.41
71857;BME280;63344;46.980;28.882;2023-12-20T05:18:05;100482.34;;;1.18;90.71
71857;BME280;63344;46.980;28.882;2023-12-20T05:20:33;100503.25;;;1.25;90.46
71857;BME280;63344;46.980;28.882;2023-12-20T05:23:03;100503.25;;;1.22;90.53
71857;BME280;63344;46.980;28.882;2023-12-20T05:25:36;100472.81;;;1.01;90.78
71857;BME280;63344;46.980;28.882;2023-12-20T05:28:07;100510.22;;;1.19;90.35
71857;BME280;63344;46.980;28.882;2023-12-20T05:30:38;100500.66;;;1.08;90.15
71857;BME280;63344;46.980;28.882;2023-12-20T05:33:06;100491.13;;;0.96;90.25
71857;BME280;63344;46.980;28.882;2023-12-20T05:35:37;100513.75;;;1.03;90.43
71857;BME280;63344;46.980;28.882;2023-12-20T05:38:06;100506.78;;;0.99;90.67
71857;BME280;63344;46.980;28.882;2023-12-20T05:40:35;100486.75;;;0.92;90.57
71857;BME280;63344;46.980;28.882;2023-12-20T05:43:06;100494.59;;;0.92;90.67
71857;BME280;63344;46.980;28.882;2023-12-20T05:45:36;100504.16;;;1.07;90.83
71857;BME280;63344;46.980;28.882;2023-12-20T05:48:19;100508.53;;;1.05;90.79
71857;BME280;63344;46.980;28.882;2023-12-20T05:50:50;100489.38;;;0.86;90.65
71857;BME280;63344;46.980;28.882;2023-12-20T05:53:19;100482.44;;;0.78;90.22
71857;BME280;63344;46.980;28.882;2023-12-20T05:55:52;100458.03;;;0.61;90.50
71857;BME280;63344;46.980;28.882;2023-12-20T05:58:22;100500.72;;;0.86;90.77
71857;BME280;63344;46.980;28.882;2023-12-20T06:00:58;100496.34;;;0.87;90.79
71857;BME280;63344;46.980;28.882;2023-12-20T06:03:30;100488.50;;;0.91;90.81
71857;BME280;63344;46.980;28.882;2023-12-20T06:06:17;100486.72;;;0.99;90.93
71857;BME280;63344;46.980;28.882;2023-12-20T06:08:46;100492.84;;;1.03;90.62
71857;BME280;63344;46.980;28.882;2023-12-20T06:11:14;100491.09;;;1.05;90.56
71857;BME280;63344;46.980;28.882;2023-12-20T06:13:42;100469.34;;;0.85;90.53
71857;BME280;63344;46.980;28.882;2023-12-20T06:16:23;100484.16;;;0.90;90.21
71857;BME280;63344;46.980;28.882;2023-12-20T06:18:56;100469.38;;;0.63;90.19
71857;BME280;63344;46.980;28.882;2023-12-20T06:21:26;100464.16;;;0.57;90.32
71857;BME280;63344;46.980;28.882;2023-12-20T06:23:53;100464.13;;;0.63;90.61
71857;BME280;63344;46.980;28.882;2023-12-20T06:26:20;100470.25;;;0.68;90.53
71857;BME280;63344;46.980;28.882;2023-12-20T06:28:48;100508.53;;;0.91;90.70
71857;BME280;63344;46.980;28.882;2023-12-20T06:31:15;100495.47;;;0.83;90.62
71857;BME280;63344;46.980;28.882;2023-12-20T06:33:43;100492.84;;;0.88;90.44
71857;BME280;63344;46.980;28.882;2023-12-20T06:36:12;100498.06;;;0.88;90.31
71857;BME280;63344;46.980;28.882;2023-12-20T06:38:40;100499.81;;;0.99;90.54
71857;BME280;63344;46.980;28.882;2023-12-20T06:41:13;100490.22;;;1.05;90.55
71857;BME280;63344;46.980;28.882;2023-12-20T06:43:41;100491.09;;;1.05;89.96
71857;BME280;63344;46.980;28.882;2023-12-20T06:46:16;100498.91;;;1.11;90.15
71857;BME280;63344;46.980;28.882;2023-12-20T06:48:52;100510.22;;;1.19;89.78
71857;BME280;63344;46.980;28.882;2023-12-20T06:51:20;100514.56;;;1.34;89.54
71857;BME280;63344;46.980;28.882;2023-12-20T06:53:47;100475.38;;;1.16;89.24
71857;BME280;63344;46.980;28.882;2023-12-20T06:56:15;100491.91;;;1.30;89.26
71857;BME280;63344;46.980;28.882;2023-12-20T06:58:53;100527.56;;;1.61;89.19
71857;BME280;63344;46.980;28.882;2023-12-20T07:01:21;100522.31;;;1.67;89.19
71857;BME280;63344;46.980;28.882;2023-12-20T07:03:49;100510.06;;;1.66;88.63
71857;BME280;63344;46.980;28.882;2023-12-20T07:06:17;100523.09;;;1.83;89.09
71857;BME280;63344;46.980;28.882;2023-12-20T07:08:46;100510.88;;;1.82;88.37
71857;BME280;63344;46.980;28.882;2023-12-20T07:11:14;100478.66;;;1.69;88.04
71857;BME280;63344;46.980;28.882;2023-12-20T07:13:44;100492.53;;;1.83;87.91
71857;BME280;63344;46.980;28.882;2023-12-20T07:16:16;100475.97;;;1.81;87.72
71857;BME280;63344;46.980;28.882;2023-12-20T07:18:56;100463.75;;;1.86;87.51
71857;BME280;63344;46.980;28.882;2023-12-20T07:21:31;100495.06;;;2.08;87.12
71857;BME280;63344;46.980;28.882;2023-12-20T07:23:59;100463.69;;;1.94;87.04
71857;BME280;63344;46.980;28.882;2023-12-20T07:26:26;100494.06;;;2.23;87.10
71857;BME280;63344;46.980;28.882;2023-12-20T07:28:53;100494.00;;;2.32;86.82
71857;BME280;63344;46.980;28.882;2023-12-20T07:31:24;100471.19;;;2.42;86.41
71857;BME280;63344;46.980;28.882;2023-12-20T07:33:53;100472.94;;;2.46;86.44
71857;BME280;63344;46.980;28.882;2023-12-20T07:36:42;100456.31;;;2.45;86.39
71857;BME280;63344;46.980;28.882;2023-12-20T07:39:11;100458.84;;;2.59;86.18
71857;BME280;63344;46.980;28.882;2023-12-20T07:41:55;100444.81;;;2.62;85.98
71857;BME280;63344;46.980;28.882;2023-12-20T07:44:22;100470.91;;;2.78;85.97
71857;BME280;63344;46.980;28.882;2023-12-20T07:46:49;100486.50;;;2.92;85.41
71857;BME280;63344;46.980;28.882;2023-12-20T07:49:19;100451.63;;;2.84;85.36
71857;BME280;63344;46.980;28.882;2023-12-20T07:51:59;100480.16;;;3.15;85.60
71857;BME280;63344;46.980;28.882;2023-12-20T07:54:27;100453.06;;;3.11;85.24
71857;BME280;63344;46.980;28.882;2023-12-20T07:56:57;100437.25;;;3.19;84.77
71857;BME280;63344;46.980;28.882;2023-12-20T07:59:25;100462.28;;;3.48;85.06
71857;BME280;63344;46.980;28.882;2023-12-20T08:01:59;100429.97;;;3.41;84.85
71857;BME280;63344;46.980;28.882;2023-12-20T08:04:27;100465.44;;;3.74;84.15
71857;BME280;63344;46.980;28.882;2023-12-20T08:06:54;100449.59;;;3.79;83.06
71857;BME280;63344;46.980;28.882;2023-12-20T08:09:22;100419.00;;;3.78;81.99
71857;BME280;63344;46.980;28.882;2023-12-20T08:11:50;100407.38;;;3.93;81.71
71857;BME280;63344;46.980;28.882;2023-12-20T08:14:18;100424.59;;;4.14;80.98
71857;BME280;63344;46.980;28.882;2023-12-20T08:16:46;100447.03;;;4.35;80.63
71857;BME280;63344;46.980;28.882;2023-12-20T08:19:29;100460.72;;;4.55;80.37
71857;BME280;63344;46.980;28.882;2023-12-20T08:22:12;100456.13;;;4.68;79.64
71857;BME280;63344;46.980;28.882;2023-12-20T08:24:53;100455.06;;;4.78;80.20
71857;BME280;63344;46.980;28.882;2023-12-20T08:27:21;100454.97;;;4.83;78.85
71857;BME280;63344;46.980;28.882;2023-12-20T08:29:51;100427.78;;;4.83;78.27
71857;BME280;63344;46.980;28.882;2023-12-20T08:32:19;100442.34;;;5.04;78.07
71857;BME280;63344;46.980;28.882;2023-12-20T08:34:48;100388.31;;;4.84;78.04
71857;BME280;63344;46.980;28.882;2023-12-20T08:37:19;100389.88;;;4.93;77.82
71857;BME280;63344;46.980;28.882;2023-12-20T08:39:47;100390.44;;;5.10;77.79
71857;BME280;63344;46.980;28.882;2023-12-20T08:42:14;100375.50;;;5.11;77.51
71857;BME280;63344;46.980;28.882;2023-12-20T08:44:41;100414.41;;;5.40;77.15
71857;BME280;63344;46.980;28.882;2023-12-20T08:47:09;100370.06;;;5.18;77.33
71857;BME280;63344;46.980;28.882;2023-12-20T08:49:44;100370.72;;;5.30;77.24
71857;BME280;63344;46.980;28.882;2023-12-20T08:52:14;100350.47;;;5.33;77.60
71857;BME280;63344;46.980;28.882;2023-12-20T08:54:41;100379.72;;;5.60;76.62
71857;BME280;63344;46.980;28.882;2023-12-20T08:57:12;100390.63;;;5.84;76.04
71857;BME280;63344;46.980;28.882;2023-12-20T08:59:39;100349.47;;;5.76;75.45
71857;BME280;63344;46.980;28.882;2023-12-20T09:02:09;100344.16;;;5.79;74.14
71857;BME280;63344;46.980;28.882;2023-12-20T09:04:36;100356.72;;;6.06;73.65
71857;BME280;63344;46.980;28.882;2023-12-20T09:07:04;100364.19;;;6.24;73.54
71857;BME280;63344;46.980;28.882;2023-12-20T09:09:31;100339.63;;;6.22;72.64
71857;BME280;63344;46.980;28.882;2023-12-20T09:11:59;100334.88;;;6.35;72.88
71857;BME280;63344;46.980;28.882;2023-12-20T09:14:27;100354.22;;;6.68;72.45
71857;BME280;63344;46.980;28.882;2023-12-20T09:16:54;100341.72;;;6.75;72.63
71857;BME280;63344;46.980;28.882;2023-12-20T09:19:23;100332.75;;;6.82;71.88
71857;BME280;63344;46.980;28.882;2023-12-20T09:21:51;100346.34;;;7.00;71.02
71857;BME280;63344;46.980;28.882;2023-12-20T09:24:18;100310.44;;;6.92;70.39
71857;BME280;63344;46.980;28.882;2023-12-20T09:26:46;100299.19;;;7.45;71.21
71857;BME280;63344;46.980;28.882;2023-12-20T09:29:14;100311.56;;;10.75;66.46
71857;BME280;63344;46.980;28.882;2023-12-20T09:31:43;100318.97;;;14.00;59.50
71857;BME280;63344;46.980;28.882;2023-12-20T09:34:11;100276.19;;;15.88;51.58
71857;BME280;63344;46.980;28.882;2023-12-20T09:36:39;100284.97;;;17.69;48.15
71857;BME280;63344;46.980;28.882;2023-12-20T09:39:17;100270.38;;;18.44;41.68
71857;BME280;63344;46.980;28.882;2023-12-20T09:42:01;100306.84;;;19.84;40.51
71857;BME280;63344;46.980;28.882;2023-12-20T09:44:29;100289.69;;;21.01;38.99
71857;BME280;63344;46.980;28.882;2023-12-20T09:46:58;100284.94;;;21.65;36.46
71857;BME280;63344;46.980;28.882;2023-12-20T09:49:27;100290.63;;;21.62;34.47
71857;BME280;63344;46.980;28.882;2023-12-20T09:51:59;100283.13;;;21.95;35.13
71857;BME280;63344;46.980;28.882;2023-12-20T09:54:30;100287.94;;;22.20;33.27
71857;BME280;63344;46.980;28.882;2023-12-20T09:56:58;100252.22;;;21.78;31.92
71857;BME280;63344;46.980;28.882;2023-12-20T09:59:25;100256.13;;;20.52;33.17
71857;BME280;63344;46.980;28.882;2023-12-20T10:01:55;100274.53;;;20.37;34.79
71857;BME280;63344;46.980;28.882;2023-12-20T10:04:24;100268.91;;;20.08;32.95
71857;BME280;63344;46.980;28.882;2023-12-20T10:06:57;100261.34;;;18.68;35.38
71857;BME280;63344;46.980;28.882;2023-12-20T10:09:31;100233.19;;;17.91;36.93
71857;BME280;63344;46.980;28.882;2023-12-20T10:11:59;100231.16;;;17.82;37.18
71857;BME280;63344;46.980;28.882;2023-12-20T10:14:26;100240.78;;;17.12;37.04
71857;BME280;63344;46.980;28.882;2023-12-20T10:17:04;100247.25;;;16.59;39.16
71857;BME280;63344;46.980;28.882;2023-12-20T10:19:32;100251.75;;;16.58;39.24
71857;BME280;63344;46.980;28.882;2023-12-20T10:22:00;100242.97;;;16.56;39.55
71857;BME280;63344;46.980;28.882;2023-12-20T10:24:31;100208.28;;;17.04;39.39
71857;BME280;63344;46.980;28.882;2023-12-20T10:27:07;100227.78;;;18.16;37.47
71857;BME280;63344;46.980;28.882;2023-12-20T10:29:36;100216.81;;;17.83;38.03
71857;BME280;63344;46.980;28.882;2023-12-20T10:32:26;100234.56;;;17.12;38.23
71857;BME280;63344;46.980;28.882;2023-12-20T10:34:54;100221.09;;;15.57;40.65
71857;BME280;63344;46.980;28.882;2023-12-20T10:37:23;100208.22;;;14.21;42.87
71857;BME280;63344;46.980;28.882;2023-12-20T10:39:52;100192.53;;;13.40;44.87
71857;BME280;63344;46.980;28.882;2023-12-20T10:42:59;100201.88;;;12.84;46.44
71857;BME280;63344;46.980;28.882;2023-12-20T10:45:36;100198.81;;;12.42;47.40
71857;BME280;63344;46.980;28.882;2023-12-20T10:48:35;100191.66;;;12.09;48.29
71857;BME280;63344;46.980;28.882;2023-12-20T10:51:07;100172.63;;;11.82;49.09
71857;BME280;63344;46.980;28.882;2023-12-20T10:53:37;100151.41;;;11.63;49.19
71857;BME280;63344;46.980;28.882;2023-12-20T10:56:08;100116.22;;;11.41;49.39
71857;BME280;63344;46.980;28.882;2023-12-20T10:58:40;100140.38;;;11.53;49.94
71857;BME280;63344;46.980;28.882;2023-12-20T11:01:12;100165.41;;;11.67;50.62
71857;BME280;63344;46.980;28.882;2023-12-20T11:03:52;100123.78;;;11.31;51.79
71857;BME280;63344;46.980;28.882;2023-12-20T11:06:37;100107.56;;;11.18;51.93
71857;BME280;63344;46.980;28.882;2023-12-20T11:09:10;100148.31;;;11.36;52.48
71857;BME280;63344;46.980;28.882;2023-12-20T11:11:58;100150.13;;;11.35;52.70
71857;BME280;63344;46.980;28.882;2023-12-20T11:14:52;100099.91;;;11.12;52.49
71857;BME280;63344;46.980;28.882;2023-12-20T11:17:21;100150.59;;;11.44;52.32
71857;BME280;63344;46.980;28.882;2023-12-20T11:22:26;100116.19;;;11.58;52.18
71857;BME280;63344;46.980;28.882;2023-12-20T11:24:59;100131.47;;;11.89;52.22
71857;BME280;63344;46.980;28.882;2023-12-20T11:27:32;100068.03;;;11.64;52.20
71857;BME280;63344;46.980;28.882;2023-12-20T11:29:59;100114.25;;;11.97;50.89
71857;BME280;63344;46.980;28.882;2023-12-20T11:32:28;100096.63;;;11.94;51.73
71857;BME280;63344;46.980;28.882;2023-12-20T11:34:58;100104.66;;;12.10;51.99
71857;BME280;63344;46.980;28.882;2023-12-20T11:37:30;100100.34;;;12.07;51.58
71857;BME280;63344;46.980;28.882;2023-12-20T11:40:03;100092.84;;;11.98;52.11
71857;BME280;63344;46.980;28.882;2023-12-20T11:42:38;100071.41;;;11.84;52.11
71857;BME280;63344;46.980;28.882;2023-12-20T11:45:08;100070.72;;;11.80;52.40
71857;BME280;63344;46.980;28.882;2023-12-20T11:47:35;100079.03;;;11.91;52.47
71857;BME280;63344;46.980;28.882;2023-12-20T11:50:03;100052.00;;;11.82;52.45
71857;BME280;63344;46.980;28.882;2023-12-20T11:52:32;100048.56;;;11.97;52.57
71857;BME280;63344;46.980;28.882;2023-12-20T11:54:59;100044.59;;;11.88;51.45
71857;BME280;63344;46.980;28.882;2023-12-20T11:57:26;100043.41;;;11.94;51.69
71857;BME280;63344;46.980;28.882;2023-12-20T11:59:54;100071.66;;;11.97;51.18
71857;BME280;63344;46.980;28.882;2023-12-20T12:02:22;100037.81;;;11.65;51.07
71857;BME280;63344;46.980;28.882;2023-12-20T12:04:50;100044.94;;;11.65;51.08
71857;BME280;63344;46.980;28.882;2023-12-20T12:07:18;100060.72;;;11.68;50.64
71857;BME280;63344;46.980;28.882;2023-12-20T12:09:45;100024.13;;;11.38;51.03
71857;BME280;63344;46.980;28.882;2023-12-20T12:12:14;100017.75;;;11.25;51.43
71857;BME280;63344;46.980;28.882;2023-12-20T12:14:41;100054.03;;;11.43;50.92
71857;BME280;63344;46.980;28.882;2023-12-20T12:17:13;100011.19;;;10.97;51.03
71857;BME280;63344;46.980;28.882;2023-12-20T12:19:41;100040.03;;;11.05;51.61
71857;BME280;63344;46.980;28.882;2023-12-20T12:22:10;100050.28;;;11.12;52.02
71857;BME280;63344;46.980;28.882;2023-12-20T12:24:47;100048.06;;;11.03;52.03
71857;BME280;63344;46.980;28.882;2023-12-20T12:27:18;100014.19;;;10.72;52.13
71857;BME280;63344;46.980;28.882;2023-12-20T12:30:05;100057.97;;;10.82;52.49
71857;BME280;63344;46.980;28.882;2023-12-20T12:32:35;100044.91;;;10.77;53.04
71857;BME280;63344;46.980;28.882;2023-12-20T12:35:04;100049.66;;;10.71;53.62
71857;BME280;63344;46.980;28.882;2023-12-20T12:37:34;100034.88;;;10.65;53.67
71857;BME280;63344;46.980;28.882;2023-12-20T12:40:04;99976.38;;;10.30;53.36
71857;BME280;63344;46.980;28.882;2023-12-20T12:42:33;100032.31;;;10.64;53.78
71857;BME280;63344;46.980;28.882;2023-12-20T12:45:03;100020.63;;;10.49;53.57
71857;BME280;63344;46.980;28.882;2023-12-20T12:47:31;100017.00;;;10.32;52.84
71857;BME280;63344;46.980;28.882;2023-12-20T12:49:58;99999.91;;;10.19;53.30
71857;BME280;63344;46.980;28.882;2023-12-20T12:52:26;100014.69;;;10.25;53.72
71857;BME280;63344;46.980;28.882;2023-12-20T12:54:56;100004.63;;;10.12;53.54
71857;BME280;63344;46.980;28.882;2023-12-20T12:57:24;100023.13;;;10.14;53.76
71857;BME280;63344;46.980;28.882;2023-12-20T12:59:54;99992.09;;;9.97;53.89
71857;BME280;63344;46.980;28.882;2023-12-20T13:02:21;100008.78;;;9.99;54.28
71857;BME280;63344;46.980;28.882;2023-12-20T13:04:49;100024.56;;;10.02;54.56